Time,TemperatureF,DewpointF,PressureIn,WindDirection,WindDirectionDegrees,WindSpeedMPH,WindSpeedGustMPH,Humidity,HourlyPrecipIn,Conditions,Clouds,dailyrainin,SoftwareType,DateUTC
2013-09-06 00:04:00,44.8,39.0,29.46,NW,315,0.0,0.0,80,0.00,CLR,SKC,0.00,WeatherDisplay:10.37,2013-09-05 23:04:00,
2013-09-06 00:09:00,44.6,39.1,29.46,NW,315,0.0,0.0,81,0.00,CLR,SKC,0.00,WeatherDisplay:10.37,2013-09-05 23:09:00,
2013-09-06 00:14:00,44.4,38.6,29.45,WNW,292,0.0,0.0,80,0.00,CLR,SKC,0.00,WeatherDisplay:10.37,2013-09-05 23:14:00,
2013-09-06 00:19:00,44.4,38.6,29.45,WNW,292,0.0,0.0,80,0.00,CLR,SKC,0.00,WeatherDisplay:10.37,2013-09-05 23:19:00,
2013-09-06 00:24:00,44.2,38.8,29.45,WNW,292,0.0,0.0,81,0.00,CLR,SKC,0.00,WeatherDisplay:10.37,2013-09-05 23:24:00,
2013-09-06 00:29:00,44.1,38.6,29.45,WNW,292,0.0,0.0,81,0.00,CLR,SKC,0.00,WeatherDisplay:10.37,2013-09-05 23:29:00,
2013-09-06 00:34:00,43.9,38.4,29.45,West,270,0.0,0.0,81,0.00,CLR,SKC,0.00,WeatherDisplay:10.37,2013-09-05 23:34:00,
2013-09-06 00:39:00,43.9,38.4,29.45,West,270,0.0,0.0,81,0.00,CLR,SKC,0.00,WeatherDisplay:10.37,2013-09-05 23:39:00,
2013-09-06 00:44:00,43.7,38.3,29.45,West,270,0.0,0.0,81,0.00,CLR,SKC,0.00,WeatherDisplay:10.37,2013-09-05 23:44:00,
2013-09-06 00:49:00,43.5,38.1,29.45,West,270,0.0,0.0,81,0.00,CLR,SKC,0.00,WeatherDisplay:10.37,2013-09-05 23:49:00,
2013-09-06 00:54:00,43.5,38.1,29.45,West,270,0.0,0.0,81,0.00,CLR,SKC,0.00,WeatherDisplay:10.37,2013-09-05 23:54:00,
2013-09-06 00:59:00,43.5,38.1,29.45,West,270,0.0,0.0,81,0.00,CLR,SKC,0.00,WeatherDisplay:10.37,2013-09-05 23:59:00,
2013-09-06 01:04:00,43.3,37.9,29.45,West,270,0.0,0.0,81,0.00,CLR,SKC,0.00,WeatherDisplay:10.37,2013-09-06 00:04:00,
2013-09-06 01:09:00,43.3,37.9,29.45,West,270,0.0,0.0,81,0.00,CLR,SKC,0.00,WeatherDisplay:10.37,2013-09-06 00:09:00,
2013-09-06 01:14:00,43.3,37.9,29.45,West,270,0.0,0.0,81,0.00,CLR,SKC,0.00,WeatherDisplay:10.37,2013-09-06 00:14:00,
2013-09-06 01:19:00,43.3,37.9,29.45,West,270,0.0,0.0,81,0.00,CLR,SKC,0.00,WeatherDisplay:10.37,2013-09-06 00:19:00,
2013-09-06 01:24:00,43.3,37.9,29.45,West,270,0.0,0.0,81,0.00,CLR,SKC,0.00,WeatherDisplay:10.37,2013-09-06 00:24:00,
2013-09-06 01:29:00,43.3,38.2,29.45,West,270,0.0,0.0,82,0.00,CLR,SKC,0.00,WeatherDisplay:10.37,2013-09-06 00:29:00,
2013-09-06 01:35:00,43.5,38.4,29.45,WSW,248,0.0,0.0,82,0.00,CLR,SKC,0.00,WeatherDisplay:10.37,2013-09-06 00:35:00,
2013-09-06 01:40:00,43.7,38.6,29.46,WSW,248,0.0,0.0,82,0.00,CLR,SKC,0.00,WeatherDisplay:10.37,2013-09-06 00:40:00,
2013-09-06 01:45:00,43.9,38.7,29.45,WSW,248,0.0,0.0,82,0.00,CLR,SKC,0.00,WeatherDisplay:10.37,2013-09-06 00:45:00,
2013-09-06 01:50:00,44.1,38.9,29.46,WNW,292,0.0,0.0,82,0.00,CLR,SKC,0.00,WeatherDisplay:10.37,2013-09-06 00:50:00,
2013-09-06 01:55:00,44.1,38.9,29.45,WNW,296,0.0,0.0,82,0.00,CLR,SKC,0.00,WeatherDisplay:10.37,2013-09-06 00:55:00,
2013-09-06 02:00:00,44.1,38.9,29.45,WNW,301,0.0,0.0,82,0.00,CLR,SKC,0.00,WeatherDisplay:10.37,2013-09-06 01:00:00,
2013-09-06 02:05:00,43.9,38.7,29.45,WNW,292,0.0,0.0,82,0.00,CLR,SKC,0.00,WeatherDisplay:10.37,2013-09-06 01:05:00,
2013-09-06 02:10:00,43.9,38.7,29.45,WNW,292,0.0,0.0,82,0.00,CLR,SKC,0.00,WeatherDisplay:10.37,2013-09-06 01:10:00,
2013-09-06 02:15:00,43.7,38.6,29.45,WSW,248,0.0,0.0,82,0.00,CLR,SKC,0.00,WeatherDisplay:10.37,2013-09-06 01:15:00,
2013-09-06 02:20:00,43.7,38.6,29.46,WNW,292,0.0,0.0,82,0.00,CLR,SKC,0.00,WeatherDisplay:10.37,2013-09-06 01:20:00,
2013-09-06 02:25:00,43.5,38.4,29.45,West,266,0.0,0.0,82,0.00,CLR,SKC,0.00,WeatherDisplay:10.37,2013-09-06 01:25:00,
2013-09-06 02:30:00,43.5,38.4,29.45,WSW,257,0.0,0.0,82,0.00,CLR,SKC,0.00,WeatherDisplay:10.37,2013-09-06 01:30:00,
2013-09-06 02:35:00,43.3,38.2,29.45,WSW,248,0.0,0.0,82,0.00,CLR,SKC,0.00,WeatherDisplay:10.37,2013-09-06 01:35:00,
2013-09-06 02:40:00,43.3,38.2,29.44,WSW,248,0.0,0.0,82,0.00,CLR,SKC,0.00,WeatherDisplay:10.37,2013-09-06 01:40:00,
2013-09-06 02:45:00,43.2,38.0,29.45,WSW,248,0.0,0.0,82,0.00,CLR,SKC,0.00,WeatherDisplay:10.37,2013-09-06 01:45:00,
2013-09-06 02:50:00,43.2,38.0,29.44,WSW,248,0.0,0.0,82,0.00,CLR,SKC,0.00,WeatherDisplay:10.37,2013-09-06 01:50:00,
2013-09-06 02:55:00,43.0,37.9,29.45,WSW,248,0.0,0.0,82,0.00,CLR,SKC,0.00,WeatherDisplay:10.37,2013-09-06 01:55:00,
2013-09-06 03:00:00,43.0,37.9,29.44,WSW,248,0.0,0.0,82,0.00,CLR,SKC,0.00,WeatherDisplay:10.37,2013-09-06 02:00:00,
2013-09-06 03:05:00,43.0,37.9,29.45,WSW,248,0.0,0.0,82,0.00,CLR,SKC,0.00,WeatherDisplay:10.37,2013-09-06 02:05:00,
2013-09-06 03:10:00,43.0,37.9,29.44,WSW,248,0.0,0.0,82,0.00,CLR,SKC,0.00,WeatherDisplay:10.37,2013-09-06 02:10:00,
2013-09-06 03:15:00,43.0,38.2,29.45,WSW,248,0.0,0.0,83,0.00,CLR,SKC,0.00,WeatherDisplay:10.37,2013-09-06 02:15:00,
2013-09-06 03:20:00,43.0,38.2,29.44,WSW,248,0.0,0.0,83,0.00,CLR,SKC,0.00,WeatherDisplay:10.37,2013-09-06 02:20:00,
2013-09-06 03:25:00,43.2,38.3,29.45,WSW,248,0.0,0.0,83,0.00,CLR,SKC,0.00,WeatherDisplay:10.37,2013-09-06 02:25:00,
2013-09-06 03:30:00,43.5,38.7,29.45,WSW,248,0.0,0.0,83,0.00,CLR,SKC,0.00,WeatherDisplay:10.37,2013-09-06 02:30:00,
2013-09-06 03:35:00,43.7,39.2,29.45,WSW,248,0.0,0.0,84,0.00,CLR,SKC,0.00,WeatherDisplay:10.37,2013-09-06 02:35:00,
2013-09-06 03:40:00,43.9,39.4,29.45,WSW,248,0.0,0.0,84,0.00,CLR,SKC,0.00,WeatherDisplay:10.37,2013-09-06 02:40:00,
2013-09-06 03:45:00,44.2,39.7,29.45,WSW,248,0.0,0.0,84,0.00,CLR,SKC,0.00,WeatherDisplay:10.37,2013-09-06 02:45:00,
2013-09-06 03:50:00,44.4,39.9,29.45,WSW,248,0.0,0.0,84,0.00,CLR,SKC,0.00,WeatherDisplay:10.37,2013-09-06 02:50:00,
2013-09-06 03:55:00,44.8,40.2,29.45,WSW,248,0.0,0.0,84,0.00,CLR,SKC,0.00,WeatherDisplay:10.37,2013-09-06 02:55:00,
2013-09-06 04:00:00,45.0,40.4,29.45,WSW,248,0.0,0.0,84,0.00,CLR,SKC,0.00,WeatherDisplay:10.37,2013-09-06 03:00:00,
2013-09-06 04:05:00,45.0,40.1,29.44,WSW,248,0.0,0.0,83,0.00,CLR,SKC,0.00,WeatherDisplay:10.37,2013-09-06 03:05:00,
2013-09-06 04:10:00,45.0,40.1,29.44,SW,225,0.0,0.0,83,0.00,CLR,SKC,0.00,WeatherDisplay:10.37,2013-09-06 03:10:00,
2013-09-06 04:15:00,45.0,40.1,29.44,SW,225,0.0,0.0,83,0.00,CLR,SKC,0.00,WeatherDisplay:10.37,2013-09-06 03:15:00,
2013-09-06 04:20:00,45.0,40.1,29.44,SW,225,0.0,0.0,83,0.00,CLR,SKC,0.00,WeatherDisplay:10.37,2013-09-06 03:20:00,
2013-09-06 04:25:00,45.0,40.1,29.44,SW,225,0.0,0.0,83,0.00,CLR,SKC,0.00,WeatherDisplay:10.37,2013-09-06 03:25:00,
2013-09-06 04:30:00,45.0,40.1,29.44,SW,225,0.0,0.0,83,0.00,CLR,SKC,0.00,WeatherDisplay:10.37,2013-09-06 03:30:00,
2013-09-06 04:35:00,45.1,40.3,29.44,SW,225,0.0,0.0,83,0.00,CLR,SKC,0.00,WeatherDisplay:10.37,2013-09-06 03:35:00,
2013-09-06 04:40:00,45.1,40.3,29.44,SW,225,0.0,0.0,83,0.00,CLR,SKC,0.00,WeatherDisplay:10.37,2013-09-06 03:40:00,
2013-09-06 04:45:00,45.3,40.5,29.44,SW,225,0.0,0.0,83,0.00,CLR,SKC,0.00,WeatherDisplay:10.37,2013-09-06 03:45:00,
2013-09-06 04:50:00,45.3,40.5,29.44,SW,225,0.0,0.0,83,0.00,CLR,SKC,0.00,WeatherDisplay:10.37,2013-09-06 03:50:00,
2013-09-06 04:55:00,45.3,40.5,29.45,SW,225,0.0,0.0,83,0.00,CLR,SKC,0.00,WeatherDisplay:10.37,2013-09-06 03:55:00,
2013-09-06 05:00:00,45.3,40.5,29.44,SW,225,0.0,0.0,83,0.00,CLR,SKC,0.00,WeatherDisplay:10.37,2013-09-06 04:00:00,
2013-09-06 05:01:00,45.3,40.5,29.44,SW,225,0.0,0.0,83,0.00,CLR,SKC,0.00,WeatherDisplay:10.37,2013-09-06 04:01:00,
2013-09-06 05:06:00,45.1,40.3,29.45,SW,225,0.0,0.0,83,0.00,CLR,SKC,0.00,WeatherDisplay:10.37,2013-09-06 04:06:00,
2013-09-06 05:11:00,45.1,40.3,29.44,SW,225,0.0,0.0,83,0.00,CLR,SKC,0.00,WeatherDisplay:10.37,2013-09-06 04:11:00,
2013-09-06 05:16:00,45.1,40.3,29.44,SW,225,0.0,0.0,83,0.00,CLR,SKC,0.00,WeatherDisplay:10.37,2013-09-06 04:16:00,
2013-09-06 05:21:00,45.1,40.3,29.44,SW,225,0.0,0.0,83,0.00,CLR,SKC,0.00,WeatherDisplay:10.37,2013-09-06 04:21:00,
2013-09-06 05:26:00,45.1,40.3,29.44,SW,225,0.0,0.0,83,0.00,CLR,SKC,0.00,WeatherDisplay:10.37,2013-09-06 04:26:00,
2013-09-06 05:31:00,45.0,40.1,29.44,SW,225,0.0,0.0,83,0.00,CLR,SKC,0.00,WeatherDisplay:10.37,2013-09-06 04:31:00,
2013-09-06 05:36:00,45.0,40.1,29.44,SW,225,0.0,0.0,83,0.00,CLR,SKC,0.00,WeatherDisplay:10.37,2013-09-06 04:36:00,
2013-09-06 05:41:00,45.0,40.4,29.44,SW,225,0.0,0.0,84,0.00,CLR,SKC,0.00,WeatherDisplay:10.37,2013-09-06 04:41:00,
2013-09-06 05:46:00,45.1,40.6,29.44,SW,225,0.0,0.0,84,0.00,CLR,SKC,0.00,WeatherDisplay:10.37,2013-09-06 04:46:00,
2013-09-06 05:51:00,45.1,40.6,29.44,SW,225,0.0,0.0,84,0.00,CLR,SKC,0.00,WeatherDisplay:10.37,2013-09-06 04:51:00,
2013-09-06 05:56:00,45.3,40.8,29.44,SW,225,0.0,0.0,84,0.00,CLR,SKC,0.00,WeatherDisplay:10.37,2013-09-06 04:56:00,
2013-09-06 06:01:00,45.3,40.8,29.44,SW,225,0.0,0.0,84,0.00,CLR,SKC,0.00,WeatherDisplay:10.37,2013-09-06 05:01:00,
2013-09-06 06:06:00,45.3,40.8,29.44,SW,225,0.0,0.0,84,0.00,CLR,SKC,0.00,WeatherDisplay:10.37,2013-09-06 05:06:00,
2013-09-06 06:11:00,45.5,40.9,29.44,SW,225,0.0,0.0,84,0.00,CLR,SKC,0.00,WeatherDisplay:10.37,2013-09-06 05:11:00,
2013-09-06 06:16:00,45.7,41.1,29.44,SW,225,0.0,0.0,84,0.00,CLR,SKC,0.00,WeatherDisplay:10.37,2013-09-06 05:16:00,
2013-09-06 06:21:00,45.7,41.1,29.44,SW,225,0.0,0.0,84,0.00,CLR,SKC,0.00,WeatherDisplay:10.37,2013-09-06 05:21:00,
2013-09-06 06:26:00,45.7,41.1,29.44,SW,225,0.0,0.0,84,0.00,CLR,SKC,0.00,WeatherDisplay:10.37,2013-09-06 05:26:00,
2013-09-06 06:31:00,45.7,41.1,29.44,SW,225,0.0,0.0,84,0.00,CLR,SKC,0.00,WeatherDisplay:10.37,2013-09-06 05:31:00,
2013-09-06 06:36:00,46.0,41.5,29.44,SW,225,0.0,0.0,84,0.00,CLR,SKC,0.00,WeatherDisplay:10.37,2013-09-06 05:36:00,
2013-09-06 06:41:00,46.0,41.5,29.44,SW,225,0.0,0.0,84,0.00,CLR,SKC,0.00,WeatherDisplay:10.37,2013-09-06 05:41:00,
2013-09-06 06:46:00,46.0,41.5,29.45,SW,225,0.0,0.0,84,0.00,CLR,SKC,0.00,WeatherDisplay:10.37,2013-09-06 05:46:00,
2013-09-06 06:51:00,46.2,41.7,29.45,SW,225,0.0,0.0,84,0.00,CLR,SKC,0.00,WeatherDisplay:10.37,2013-09-06 05:51:00,
2013-09-06 06:56:00,46.2,41.7,29.45,SW,225,0.0,0.0,84,0.00,CLR,SKC,0.00,WeatherDisplay:10.37,2013-09-06 05:56:00,
2013-09-06 07:01:00,46.2,41.7,29.45,SW,225,0.0,0.0,84,0.00,CLR,SKC,0.00,WeatherDisplay:10.37,2013-09-06 06:01:00,
2013-09-06 07:06:00,46.2,41.7,29.45,SW,225,0.0,0.0,84,0.00,CLR,SKC,0.00,WeatherDisplay:10.37,2013-09-06 06:06:00,
2013-09-06 07:11:00,46.4,41.8,29.45,SW,225,0.0,0.0,84,0.00,CLR,SKC,0.00,WeatherDisplay:10.37,2013-09-06 06:11:00,
2013-09-06 07:16:00,46.6,42.0,29.45,SW,225,0.0,0.0,84,0.00,CLR,SKC,0.00,WeatherDisplay:10.37,2013-09-06 06:16:00,
2013-09-06 07:21:00,46.8,42.2,29.45,SW,225,0.0,0.0,84,0.00,CLR,SKC,0.00,WeatherDisplay:10.37,2013-09-06 06:21:00,
2013-09-06 07:26:00,46.8,42.2,29.45,SW,225,0.0,0.0,84,0.00,CLR,SKC,0.00,WeatherDisplay:10.37,2013-09-06 06:26:00,
2013-09-06 07:31:00,46.9,42.4,29.46,SW,225,0.0,0.0,84,0.00,CLR,SKC,0.00,WeatherDisplay:10.37,2013-09-06 06:31:00,
2013-09-06 07:37:00,47.1,42.5,29.46,SW,225,0.0,0.0,84,0.00,CLR,SKC,0.00,WeatherDisplay:10.37,2013-09-06 06:37:00,
2013-09-06 07:42:00,47.1,42.5,29.46,SW,225,0.0,0.0,84,0.00,CLR,SKC,0.00,WeatherDisplay:10.37,2013-09-06 06:42:00,
2013-09-06 07:47:00,47.3,42.7,29.46,SW,225,0.0,0.0,84,0.00,CLR,SKC,0.00,WeatherDisplay:10.37,2013-09-06 06:47:00,
2013-09-06 07:52:00,47.5,42.9,29.46,SW,225,0.0,0.0,84,0.00,CLR,SKC,0.00,WeatherDisplay:10.37,2013-09-06 06:52:00,
2013-09-06 07:57:00,47.5,42.9,29.46,SW,225,0.0,0.0,84,0.00,CLR,SKC,0.00,WeatherDisplay:10.37,2013-09-06 06:57:00,
2013-09-06 08:02:00,47.8,43.2,29.46,SW,225,0.0,0.0,84,0.00,CLR,SKC,0.00,WeatherDisplay:10.37,2013-09-06 07:02:00,
2013-09-06 08:07:00,48.0,43.4,29.46,SW,225,0.0,0.0,84,0.00,CLR,SKC,0.00,WeatherDisplay:10.37,2013-09-06 07:07:00,
2013-09-06 08:12:00,48.0,43.4,29.47,SW,225,0.0,0.0,84,0.00,CLR,SKC,0.00,WeatherDisplay:10.37,2013-09-06 07:12:00,
2013-09-06 08:17:00,48.2,43.6,29.46,SW,225,0.0,0.0,84,0.00,CLR,SKC,0.00,WeatherDisplay:10.37,2013-09-06 07:17:00,
2013-09-06 08:22:00,48.6,43.9,29.46,SW,225,0.0,0.0,84,0.00,CLR,SKC,0.00,WeatherDisplay:10.37,2013-09-06 07:22:00,
2013-09-06 08:27:00,48.6,43.9,29.46,WSW,248,0.0,0.0,84,0.00,CLR,SKC,0.00,WeatherDisplay:10.37,2013-09-06 07:27:00,
2013-09-06 08:32:00,48.7,44.1,29.47,WSW,248,0.0,0.0,84,0.00,CLR,SKC,0.00,WeatherDisplay:10.37,2013-09-06 07:32:00,
2013-09-06 08:37:00,48.9,44.3,29.47,WSW,248,0.0,0.0,84,0.00,CLR,SKC,0.00,WeatherDisplay:10.37,2013-09-06 07:37:00,
2013-09-06 08:42:00,49.1,44.5,29.47,WSW,248,0.0,0.0,84,0.00,CLR,SKC,0.00,WeatherDisplay:10.37,2013-09-06 07:42:00,
2013-09-06 08:47:00,49.1,44.5,29.47,WSW,248,0.0,0.0,84,0.00,CLR,SKC,0.00,WeatherDisplay:10.37,2013-09-06 07:47:00,
2013-09-06 08:52:00,49.3,44.6,29.47,WSW,248,0.0,0.0,84,0.00,CLR,SKC,0.00,WeatherDisplay:10.37,2013-09-06 07:52:00,
2013-09-06 08:57:00,49.6,45.0,29.47,WSW,248,0.0,0.0,84,0.00,CLR,SKC,0.00,WeatherDisplay:10.37,2013-09-06 07:57:00,
2013-09-06 09:02:00,49.8,45.2,29.47,WSW,248,0.0,0.0,84,0.00,CLR,SKC,0.00,WeatherDisplay:10.37,2013-09-06 08:02:00,
2013-09-06 09:07:00,50.0,45.4,29.47,WSW,248,0.0,0.0,84,0.00,CLR,SKC,0.00,WeatherDisplay:10.37,2013-09-06 08:07:00,
2013-09-06 09:12:00,50.2,45.2,29.47,WSW,248,0.0,0.0,83,0.00,CLR,SKC,0.00,WeatherDisplay:10.37,2013-09-06 08:12:00,
2013-09-06 09:17:00,50.5,45.6,29.47,North,0,0.0,0.0,83,0.00,CLR,SKC,0.00,WeatherDisplay:10.37,2013-09-06 08:17:00,
2013-09-06 09:22:00,50.7,45.7,29.47,North,0,0.0,0.0,83,0.00,CLR,SKC,0.00,WeatherDisplay:10.37,2013-09-06 08:22:00,
2013-09-06 09:27:00,50.9,45.9,29.47,North,0,0.0,0.0,83,0.00,CLR,SKC,0.00,WeatherDisplay:10.37,2013-09-06 08:27:00,
2013-09-06 09:32:00,51.1,45.8,29.47,North,0,0.0,0.0,82,0.00,CLR,SKC,0.00,WeatherDisplay:10.37,2013-09-06 08:32:00,
2013-09-06 09:37:00,51.1,45.8,29.47,NNW,338,0.0,0.0,82,0.00,CLR,SKC,0.00,WeatherDisplay:10.37,2013-09-06 08:37:00,
2013-09-06 09:42:00,51.1,45.8,29.47,North,0,0.0,0.0,82,0.00,CLR,SKC,0.00,WeatherDisplay:10.37,2013-09-06 08:42:00,
2013-09-06 09:47:00,51.3,45.6,29.47,North,0,0.0,0.0,81,0.00,CLR,SKC,0.00,WeatherDisplay:10.37,2013-09-06 08:47:00,
2013-09-06 09:52:00,51.3,45.6,29.47,North,0,0.0,0.0,81,0.00,CLR,SKC,0.00,WeatherDisplay:10.37,2013-09-06 08:52:00,
2013-09-06 09:57:00,51.4,45.8,29.47,North,0,0.0,0.0,81,0.00,CLR,SKC,0.00,WeatherDisplay:10.37,2013-09-06 08:57:00,
2013-09-06 10:02:00,51.6,46.0,29.47,North,0,0.0,0.0,81,0.00,CLR,SKC,0.00,WeatherDisplay:10.37,2013-09-06 09:02:00,
2013-09-06 10:07:00,51.6,45.7,29.47,North,0,0.0,0.0,80,0.00,CLR,SKC,0.00,WeatherDisplay:10.37,2013-09-06 09:07:00,
2013-09-06 10:12:00,52.0,46.0,29.47,NNE,22,0.0,0.0,80,0.00,CLR,SKC,0.00,WeatherDisplay:10.37,2013-09-06 09:12:00,
2013-09-06 10:17:00,52.7,46.7,29.47,NNE,22,0.0,0.0,80,0.00,CLR,SKC,0.00,WeatherDisplay:10.37,2013-09-06 09:17:00,
2013-09-06 10:22:00,52.9,46.5,29.47,NW,315,0.0,0.0,79,0.00,CLR,SKC,0.00,WeatherDisplay:10.37,2013-09-06 09:22:00,
2013-09-06 10:27:00,53.2,46.9,29.48,NNW,338,0.0,0.0,79,0.00,CLR,SKC,0.00,WeatherDisplay:10.37,2013-09-06 09:27:00,
2013-09-06 10:32:00,53.8,47.1,29.47,NNE,22,0.0,0.0,78,0.00,CLR,SKC,0.00,WeatherDisplay:10.37,2013-09-06 09:32:00,
2013-09-06 10:37:00,54.0,46.9,29.47,North,0,0.0,0.0,77,0.00,CLR,SKC,0.00,WeatherDisplay:10.37,2013-09-06 09:37:00,
2013-09-06 10:42:00,54.3,47.3,29.47,NNW,338,0.0,0.0,77,0.00,CLR,SKC,0.00,WeatherDisplay:10.37,2013-09-06 09:42:00,
2013-09-06 10:47:00,54.5,47.4,29.47,NW,315,0.0,0.0,77,0.00,CLR,SKC,0.00,WeatherDisplay:10.37,2013-09-06 09:47:00,
2013-09-06 10:52:00,54.3,47.3,29.47,WNW,292,0.0,0.0,77,0.00,CLR,SKC,0.00,WeatherDisplay:10.37,2013-09-06 09:52:00,
2013-09-06 10:57:00,54.1,46.7,29.48,WNW,292,0.0,0.0,76,0.00,CLR,SKC,0.00,WeatherDisplay:10.37,2013-09-06 09:57:00,
2013-09-06 11:02:00,54.1,46.7,29.49,WNW,292,0.0,0.0,76,0.00,CLR,SKC,0.00,WeatherDisplay:10.37,2013-09-06 10:02:00,
2013-09-06 11:07:00,54.1,46.7,29.49,WNW,292,0.0,0.0,76,0.00,CLR,SKC,0.00,WeatherDisplay:10.37,2013-09-06 10:07:00,
2013-09-06 11:12:00,54.5,47.4,29.49,WNW,292,0.0,0.0,77,0.00,CLR,SKC,0.00,WeatherDisplay:10.37,2013-09-06 10:12:00,
2013-09-06 11:17:00,54.7,47.6,29.48,WNW,292,0.0,0.0,77,0.00,CLR,SKC,0.00,WeatherDisplay:10.37,2013-09-06 10:17:00,
2013-09-06 11:22:00,54.7,47.6,29.48,WNW,292,0.0,0.0,77,0.00,CLR,SKC,0.00,WeatherDisplay:10.37,2013-09-06 10:22:00,
2013-09-06 11:27:00,55.0,48.0,29.49,WNW,292,0.0,0.0,77,0.00,CLR,SKC,0.00,WeatherDisplay:10.37,2013-09-06 10:27:00,
2013-09-06 11:32:00,55.2,48.1,29.48,WNW,292,0.0,0.0,77,0.00,CLR,SKC,0.00,WeatherDisplay:10.37,2013-09-06 10:32:00,
2013-09-06 11:37:00,55.2,48.1,29.49,WNW,292,0.0,0.0,77,0.00,CLR,SKC,0.00,WeatherDisplay:10.37,2013-09-06 10:37:00,
2013-09-06 11:42:00,55.2,47.8,29.48,WNW,292,0.0,0.0,76,0.00,CLR,SKC,0.00,WeatherDisplay:10.37,2013-09-06 10:42:00,
2013-09-06 11:47:00,55.2,47.8,29.48,WNW,292,0.0,0.0,76,0.00,CLR,SKC,0.00,WeatherDisplay:10.37,2013-09-06 10:47:00,
2013-09-06 11:52:00,55.2,47.4,29.48,NW,315,0.0,0.0,75,0.00,CLR,SKC,0.00,WeatherDisplay:10.37,2013-09-06 10:52:00,
2013-09-06 11:57:00,55.2,47.4,29.48,NW,315,0.0,0.0,75,0.00,CLR,SKC,0.00,WeatherDisplay:10.37,2013-09-06 10:57:00,
2013-09-06 12:02:00,55.2,47.1,29.49,NNE,22,0.0,0.0,74,0.00,CLR,SKC,0.00,WeatherDisplay:10.37,2013-09-06 11:02:00,
2013-09-06 12:07:00,55.2,47.1,29.48,ENE,68,0.0,0.0,74,0.00,CLR,SKC,0.00,WeatherDisplay:10.37,2013-09-06 11:07:00,
2013-09-06 12:12:00,55.2,46.7,29.49,ESE,112,0.0,0.0,73,0.00,CLR,SKC,0.00,WeatherDisplay:10.37,2013-09-06 11:12:00,
2013-09-06 12:17:00,55.2,46.3,29.49,ENE,68,0.0,0.0,72,0.00,CLR,SKC,0.00,WeatherDisplay:10.37,2013-09-06 11:17:00,
2013-09-06 12:22:00,55.2,46.3,29.49,NNE,22,0.0,0.0,72,0.00,CLR,SKC,0.00,WeatherDisplay:10.37,2013-09-06 11:22:00,
2013-09-06 12:27:00,55.2,46.3,29.49,ENE,68,0.0,0.0,72,0.00,CLR,SKC,0.00,WeatherDisplay:10.37,2013-09-06 11:27:00,
2013-09-06 12:32:00,55.2,46.3,29.48,ENE,68,0.0,0.0,72,0.00,CLR,SKC,0.00,WeatherDisplay:10.37,2013-09-06 11:32:00,
2013-09-06 12:37:00,55.2,46.0,29.48,ESE,112,0.0,0.0,71,0.00,CLR,SKC,0.00,WeatherDisplay:10.37,2013-09-06 11:37:00,
2013-09-06 12:42:00,55.6,46.3,29.48,ENE,68,0.0,0.0,71,0.00,CLR,SKC,0.00,WeatherDisplay:10.37,2013-09-06 11:42:00,
2013-09-06 12:47:00,55.6,46.3,29.49,NE,45,0.0,0.0,71,0.00,CLR,SKC,0.00,WeatherDisplay:10.37,2013-09-06 11:47:00,
2013-09-06 12:52:00,55.6,45.9,29.49,ENE,68,0.0,0.0,70,0.00,CLR,SKC,0.00,WeatherDisplay:10.37,2013-09-06 11:52:00,
2013-09-06 12:57:00,55.6,45.9,29.49,ENE,68,0.0,0.0,70,0.00,CLR,SKC,0.00,WeatherDisplay:10.37,2013-09-06 11:57:00,
2013-09-06 13:02:00,55.8,46.1,29.49,East,90,0.0,0.0,70,0.00,CLR,SKC,0.00,WeatherDisplay:10.37,2013-09-06 12:02:00,
2013-09-06 13:07:00,55.9,46.3,29.49,ESE,112,0.0,0.0,70,0.00,CLR,SKC,0.00,WeatherDisplay:10.37,2013-09-06 12:07:00,
2013-09-06 13:12:00,56.1,46.5,29.49,ESE,112,0.0,0.0,70,0.00,CLR,SKC,0.00,WeatherDisplay:10.37,2013-09-06 12:12:00,
2013-09-06 13:17:00,56.1,46.5,29.47,East,90,0.0,0.0,70,0.00,CLR,SKC,0.00,WeatherDisplay:10.37,2013-09-06 12:17:00,
2013-09-06 13:22:00,56.3,46.6,29.47,East,90,0.0,0.0,70,0.00,CLR,SKC,0.00,WeatherDisplay:10.37,2013-09-06 12:22:00,
2013-09-06 13:27:00,56.5,46.4,29.46,East,90,0.0,0.0,69,0.00,CLR,SKC,0.00,WeatherDisplay:10.37,2013-09-06 12:27:00,
2013-09-06 13:32:00,56.5,46.0,29.47,ESE,112,0.0,0.0,68,0.00,CLR,SKC,0.00,WeatherDisplay:10.37,2013-09-06 12:32:00,
2013-09-06 13:38:00,56.7,46.2,29.47,NNE,22,0.0,0.0,68,0.00,CLR,SKC,0.00,WeatherDisplay:10.37,2013-09-06 12:38:00,
2013-09-06 13:43:00,57.0,46.6,29.47,NE,45,0.0,0.0,68,0.00,CLR,SKC,0.00,WeatherDisplay:10.37,2013-09-06 12:43:00,
2013-09-06 13:48:00,57.0,46.2,29.46,ENE,68,0.0,0.0,67,0.00,CLR,SKC,0.00,WeatherDisplay:10.37,2013-09-06 12:48:00,
2013-09-06 13:53:00,57.4,46.9,29.47,ENE,68,0.0,0.0,68,0.00,CLR,SKC,0.00,WeatherDisplay:10.37,2013-09-06 12:53:00,
2013-09-06 13:58:00,57.9,47.0,29.47,ENE,68,0.0,0.0,67,0.00,CLR,SKC,0.00,WeatherDisplay:10.37,2013-09-06 12:58:00,
2013-09-06 14:03:00,58.1,46.8,29.46,ESE,112,0.0,0.0,66,0.00,CLR,SKC,0.00,WeatherDisplay:10.37,2013-09-06 13:03:00,
2013-09-06 14:08:00,58.3,47.0,29.46,ENE,68,0.0,0.0,66,0.00,CLR,SKC,0.00,WeatherDisplay:10.37,2013-09-06 13:08:00,
2013-09-06 14:13:00,58.6,46.9,29.46,ESE,112,0.0,0.0,65,0.00,CLR,SKC,0.00,WeatherDisplay:10.37,2013-09-06 13:13:00,
2013-09-06 14:18:00,58.8,47.1,29.47,ESE,112,0.0,0.0,65,0.00,CLR,SKC,0.00,WeatherDisplay:10.37,2013-09-06 13:18:00,
2013-09-06 14:23:00,58.8,46.7,29.47,ESE,112,0.0,0.0,64,0.00,CLR,SKC,0.00,WeatherDisplay:10.37,2013-09-06 13:23:00,
2013-09-06 14:28:00,59.2,47.0,29.47,ENE,68,0.0,0.0,64,0.00,CLR,SKC,0.00,WeatherDisplay:10.37,2013-09-06 13:28:00,
2013-09-06 14:33:00,59.2,46.6,29.47,ENE,68,0.0,0.0,63,0.00,CLR,SKC,0.00,WeatherDisplay:10.37,2013-09-06 13:33:00,
2013-09-06 14:38:00,58.8,45.8,29.47,East,90,0.0,0.0,62,0.00,CLR,SKC,0.00,WeatherDisplay:10.37,2013-09-06 13:38:00,
2013-09-06 14:43:00,58.8,45.8,29.47,ESE,112,0.0,0.0,62,0.00,CLR,SKC,0.00,WeatherDisplay:10.37,2013-09-06 13:43:00,
2013-09-06 14:48:00,58.5,45.9,29.46,ENE,68,0.0,0.0,63,0.00,CLR,SKC,0.00,WeatherDisplay:10.37,2013-09-06 13:48:00,
2013-09-06 14:53:00,57.9,45.4,29.47,NE,45,0.0,0.0,63,0.00,CLR,SKC,0.00,WeatherDisplay:10.37,2013-09-06 13:53:00,
2013-09-06 14:58:00,57.7,45.2,29.47,ESE,112,0.0,0.0,63,0.00,CLR,SKC,0.00,WeatherDisplay:10.37,2013-09-06 13:58:00,
2013-09-06 15:03:00,57.6,45.1,29.47,SE,135,0.0,0.0,63,0.00,CLR,SKC,0.00,WeatherDisplay:10.37,2013-09-06 14:03:00,
2013-09-06 15:08:00,57.4,44.9,29.46,SE,135,0.0,0.0,63,0.00,CLR,SKC,0.00,WeatherDisplay:10.37,2013-09-06 14:08:00,
2013-09-06 15:13:00,57.4,44.9,29.46,East,90,0.0,0.0,63,0.00,CLR,SKC,0.00,WeatherDisplay:10.37,2013-09-06 14:13:00,
2013-09-06 15:18:00,57.4,44.9,29.46,ESE,112,0.0,0.0,63,0.00,CLR,SKC,0.00,WeatherDisplay:10.37,2013-09-06 14:18:00,
2013-09-06 15:23:00,57.6,45.1,29.46,SE,135,0.0,0.0,63,0.00,CLR,SKC,0.00,WeatherDisplay:10.37,2013-09-06 14:23:00,
2013-09-06 15:28:00,57.6,45.1,29.47,East,90,0.0,0.0,63,0.00,CLR,SKC,0.00,WeatherDisplay:10.37,2013-09-06 14:28:00,
2013-09-06 15:33:00,57.4,44.9,29.46,ESE,112,0.0,0.0,63,0.00,CLR,SKC,0.00,WeatherDisplay:10.37,2013-09-06 14:33:00,
2013-09-06 15:38:00,57.4,45.3,29.46,ESE,112,0.0,0.0,64,0.00,CLR,SKC,0.00,WeatherDisplay:10.37,2013-09-06 14:38:00,
2013-09-06 15:43:00,57.0,45.8,29.46,ESE,112,0.0,0.0,66,0.00,CLR,SKC,0.00,WeatherDisplay:10.37,2013-09-06 14:43:00,
2013-09-06 15:48:00,56.8,45.6,29.46,ESE,112,0.0,0.0,66,0.00,CLR,SKC,0.00,WeatherDisplay:10.37,2013-09-06 14:48:00,
2013-09-06 15:53:00,55.9,45.9,29.46,SE,135,0.0,0.0,69,0.00,CLR,SKC,0.00,WeatherDisplay:10.37,2013-09-06 14:53:00,
2013-09-06 15:58:00,55.4,46.2,29.47,East,90,0.0,0.0,71,0.00,CLR,SKC,0.00,WeatherDisplay:10.37,2013-09-06 14:58:00,
2013-09-06 16:03:00,55.2,46.3,29.46,East,90,0.0,0.0,72,0.00,CLR,SKC,0.00,WeatherDisplay:10.37,2013-09-06 15:03:00,
2013-09-06 16:08:00,54.7,45.8,29.47,ENE,68,0.0,0.0,72,0.00,CLR,SKC,0.00,WeatherDisplay:10.37,2013-09-06 15:08:00,
2013-09-06 16:13:00,54.7,45.8,29.46,ENE,68,0.0,0.0,72,0.00,CLR,SKC,0.00,WeatherDisplay:10.37,2013-09-06 15:13:00,
2013-09-06 16:18:00,54.7,46.2,29.46,East,90,0.0,0.0,73,0.00,CLR,SKC,0.00,WeatherDisplay:10.37,2013-09-06 15:18:00,
2013-09-06 16:23:00,54.9,46.4,29.46,East,90,0.0,0.0,73,0.00,CLR,SKC,0.00,WeatherDisplay:10.37,2013-09-06 15:23:00,
2013-09-06 16:28:00,54.9,46.4,29.46,ENE,68,0.0,0.0,73,0.00,CLR,SKC,0.00,WeatherDisplay:10.37,2013-09-06 15:28:00,
2013-09-06 16:33:00,55.0,46.5,29.46,ESE,112,0.0,0.0,73,0.00,CLR,SKC,0.00,WeatherDisplay:10.37,2013-09-06 15:33:00,
2013-09-06 16:38:00,54.9,46.4,29.46,ESE,112,0.0,0.0,73,0.00,CLR,SKC,0.00,WeatherDisplay:10.37,2013-09-06 15:38:00,
2013-09-06 16:43:00,54.9,46.0,29.45,SE,135,0.0,0.0,72,0.00,CLR,SKC,0.00,WeatherDisplay:10.37,2013-09-06 15:43:00,
2013-09-06 16:48:00,54.7,45.8,29.45,ENE,68,0.0,0.0,72,0.00,CLR,SKC,0.00,WeatherDisplay:10.37,2013-09-06 15:48:00,
2013-09-06 16:53:00,54.7,45.8,29.46,East,90,0.0,0.0,72,0.00,CLR,SKC,0.00,WeatherDisplay:10.37,2013-09-06 15:53:00,
2013-09-06 16:58:00,54.7,45.8,29.46,ESE,112,0.0,0.0,72,0.00,CLR,SKC,0.00,WeatherDisplay:10.37,2013-09-06 15:58:00,
2013-09-06 17:03:00,54.7,45.8,29.45,ENE,68,0.0,0.0,72,0.00,CLR,SKC,0.00,WeatherDisplay:10.37,2013-09-06 16:03:00,
2013-09-06 17:08:00,54.7,45.8,29.45,ENE,68,0.0,0.0,72,0.00,CLR,SKC,0.00,WeatherDisplay:10.37,2013-09-06 16:08:00,
2013-09-06 17:13:00,54.7,45.8,29.46,ENE,68,0.0,0.0,72,0.00,CLR,SKC,0.00,WeatherDisplay:10.37,2013-09-06 16:13:00,
2013-09-06 17:18:00,54.7,45.5,29.45,East,90,0.0,0.0,71,0.00,CLR,SKC,0.00,WeatherDisplay:10.37,2013-09-06 16:18:00,
2013-09-06 17:23:00,54.7,45.5,29.45,ENE,68,0.0,0.0,71,0.00,CLR,SKC,0.00,WeatherDisplay:10.37,2013-09-06 16:23:00,
2013-09-06 17:28:00,54.7,45.5,29.45,ESE,112,0.0,0.0,71,0.00,CLR,SKC,0.00,WeatherDisplay:10.37,2013-09-06 16:28:00,
2013-09-06 17:33:00,54.5,45.7,29.45,ESE,112,0.0,0.0,72,0.00,CLR,SKC,0.00,WeatherDisplay:10.37,2013-09-06 16:33:00,
2013-09-06 17:38:00,54.3,45.5,29.45,NE,45,0.0,0.0,72,0.00,CLR,SKC,0.00,WeatherDisplay:10.37,2013-09-06 16:38:00,
2013-09-06 17:43:00,54.3,45.8,29.46,ENE,68,0.0,0.0,73,0.00,CLR,SKC,0.00,WeatherDisplay:10.37,2013-09-06 16:43:00,
2013-09-06 17:48:00,54.1,46.0,29.46,ESE,112,0.0,0.0,74,0.00,CLR,SKC,0.00,WeatherDisplay:10.37,2013-09-06 16:48:00,
2013-09-06 17:53:00,54.0,45.9,29.46,ESE,112,0.0,0.0,74,0.00,CLR,SKC,0.00,WeatherDisplay:10.37,2013-09-06 16:53:00,
2013-09-06 17:58:00,53.8,46.4,29.46,SE,135,0.0,0.0,76,0.00,CLR,SKC,0.00,WeatherDisplay:10.37,2013-09-06 16:58:00,
2013-09-06 18:04:00,53.4,46.0,29.45,East,90,0.0,0.0,76,0.00,CLR,SKC,0.00,WeatherDisplay:10.37,2013-09-06 17:04:00,
2013-09-06 18:09:00,52.9,45.9,29.46,SE,135,0.0,0.0,77,0.00,CLR,SKC,0.00,WeatherDisplay:10.37,2013-09-06 17:09:00,
2013-09-06 18:14:00,52.7,46.0,29.46,ESE,112,0.0,0.0,78,0.00,CLR,SKC,0.00,WeatherDisplay:10.37,2013-09-06 17:14:00,
2013-09-06 18:19:00,52.5,46.5,29.46,ESE,112,0.0,0.0,80,0.00,CLR,SKC,0.00,WeatherDisplay:10.37,2013-09-06 17:19:00,
2013-09-06 18:24:00,52.3,46.4,29.46,ESE,112,0.0,0.0,80,0.00,CLR,SKC,0.00,WeatherDisplay:10.37,2013-09-06 17:24:00,
2013-09-06 18:29:00,52.2,46.2,29.46,ESE,112,0.0,0.0,80,0.00,CLR,SKC,0.00,WeatherDisplay:10.37,2013-09-06 17:29:00,
2013-09-06 18:34:00,52.0,46.3,29.46,East,90,0.0,0.0,81,0.00,CLR,SKC,0.00,WeatherDisplay:10.37,2013-09-06 17:34:00,
2013-09-06 18:39:00,52.0,46.7,29.45,East,90,0.0,0.0,82,0.00,CLR,SKC,0.00,WeatherDisplay:10.37,2013-09-06 17:39:00,
2013-09-06 18:44:00,52.0,46.7,29.45,ENE,68,0.0,0.0,82,0.00,CLR,SKC,0.00,WeatherDisplay:10.37,2013-09-06 17:44:00,
2013-09-06 18:49:00,52.0,47.0,29.45,ESE,112,0.0,0.0,83,0.00,CLR,SKC,0.00,WeatherDisplay:10.37,2013-09-06 17:49:00,
2013-09-06 18:54:00,52.0,47.0,29.46,ESE,112,0.0,0.0,83,0.02,RA,SKC,0.02,WeatherDisplay:10.37,2013-09-06 17:54:00,
2013-09-06 18:59:00,52.0,47.3,29.46,SE,135,0.0,0.0,84,0.02,RA,SKC,0.02,WeatherDisplay:10.37,2013-09-06 17:59:00,
2013-09-06 19:04:00,51.8,47.1,29.46,ESE,112,0.0,0.0,84,0.02,,SKC,0.02,WeatherDisplay:10.37,2013-09-06 18:04:00,
2013-09-06 19:09:00,51.6,46.9,29.46,SE,135,0.0,0.0,84,0.02,CLR,SKC,0.02,WeatherDisplay:10.37,2013-09-06 18:09:00,
2013-09-06 19:14:00,51.4,46.8,29.46,SE,135,0.0,0.0,84,0.02,CLR,SKC,0.02,WeatherDisplay:10.37,2013-09-06 18:14:00,
2013-09-06 19:19:00,51.1,46.7,29.46,ENE,68,0.0,0.0,85,0.04,RA,SKC,0.04,WeatherDisplay:10.37,2013-09-06 18:19:00,
2013-09-06 19:24:00,50.9,46.6,29.45,ENE,68,0.0,0.0,85,0.04,RA,SKC,0.04,WeatherDisplay:10.37,2013-09-06 18:24:00,
2013-09-06 19:29:00,50.9,46.6,29.45,East,90,0.0,0.0,85,0.04,,SKC,0.04,WeatherDisplay:10.37,2013-09-06 18:29:00,
2013-09-06 19:34:00,50.5,46.2,29.46,East,90,0.0,0.0,85,0.04,CLR,SKC,0.04,WeatherDisplay:10.37,2013-09-06 18:34:00,
2013-09-06 19:39:00,50.2,45.8,29.46,ESE,112,0.0,0.0,85,0.08,RA,SKC,0.08,WeatherDisplay:10.37,2013-09-06 18:39:00,
2013-09-06 19:44:00,50.0,45.7,29.47,ESE,112,0.0,0.0,85,0.08,RA,SKC,0.08,WeatherDisplay:10.37,2013-09-06 18:44:00,
2013-09-06 19:49:00,49.8,45.8,29.46,ENE,68,0.0,0.0,86,0.10,RA,SKC,0.10,WeatherDisplay:10.37,2013-09-06 18:49:00,
2013-09-06 19:54:00,49.6,45.6,29.46,ESE,112,0.0,0.0,86,0.08,RA,SKC,0.10,WeatherDisplay:10.37,2013-09-06 18:54:00,
2013-09-06 19:59:00,49.5,45.4,29.47,ENE,68,0.0,0.0,86,0.10,RA,SKC,0.12,WeatherDisplay:10.37,2013-09-06 18:59:00,
2013-09-06 20:04:00,49.3,45.3,29.46,ENE,68,0.0,0.0,86,0.10,RA,SKC,0.12,WeatherDisplay:10.37,2013-09-06 19:04:00,
2013-09-06 20:09:00,49.3,45.6,29.47,NE,45,0.0,0.0,87,0.10,CLR,SKC,0.12,WeatherDisplay:10.37,2013-09-06 19:09:00,
2013-09-06 20:14:00,49.1,45.4,29.47,East,90,0.0,0.0,87,0.12,RA,SKC,0.14,WeatherDisplay:10.37,2013-09-06 19:14:00,
2013-09-06 20:19:00,49.1,45.4,29.47,East,90,0.0,0.0,87,0.10,RA,SKC,0.16,WeatherDisplay:10.37,2013-09-06 19:19:00,
2013-09-06 20:24:00,48.9,45.2,29.47,East,90,0.0,0.0,87,0.12,RA,SKC,0.16,WeatherDisplay:10.37,2013-09-06 19:24:00,
2013-09-06 20:29:00,48.9,45.2,29.48,East,90,0.0,0.0,87,0.12,RA,SKC,0.16,WeatherDisplay:10.37,2013-09-06 19:29:00,
2013-09-06 20:34:00,48.9,45.2,29.48,East,90,0.0,0.0,87,0.14,RA,SKC,0.18,WeatherDisplay:10.37,2013-09-06 19:34:00,
2013-09-06 20:39:00,49.1,45.4,29.48,East,90,0.0,0.0,87,0.12,RA,SKC,0.21,WeatherDisplay:10.37,2013-09-06 19:39:00,
2013-09-06 20:44:00,48.9,45.2,29.49,ESE,112,0.0,0.0,87,0.14,RA,SKC,0.23,WeatherDisplay:10.37,2013-09-06 19:44:00,
2013-09-06 20:49:00,48.7,45.3,29.49,East,90,0.0,0.0,88,0.12,RA,SKC,0.23,WeatherDisplay:10.37,2013-09-06 19:49:00,
2013-09-06 20:54:00,48.7,45.3,29.49,East,90,0.0,0.0,88,0.12,,SKC,0.23,WeatherDisplay:10.37,2013-09-06 19:54:00,
2013-09-06 20:59:00,48.7,45.3,29.49,East,90,0.0,0.0,88,0.10,CLR,SKC,0.23,WeatherDisplay:10.37,2013-09-06 19:59:00,
2013-09-06 21:04:00,48.6,45.2,29.49,ESE,112,0.0,0.0,88,0.12,RA,SKC,0.25,WeatherDisplay:10.37,2013-09-06 20:04:00,
2013-09-06 21:09:00,48.6,45.2,29.49,ESE,112,0.0,0.0,88,0.12,RA,SKC,0.25,WeatherDisplay:10.37,2013-09-06 20:09:00,
2013-09-06 21:14:00,48.4,45.0,29.48,ESE,112,0.0,0.0,88,0.12,RA,SKC,0.27,WeatherDisplay:10.37,2013-09-06 20:14:00,
2013-09-06 21:19:00,48.4,45.0,29.48,ESE,112,0.0,0.0,88,0.12,RA,SKC,0.27,WeatherDisplay:10.37,2013-09-06 20:19:00,
2013-09-06 21:24:00,48.4,45.0,29.49,ESE,112,0.0,0.0,88,0.12,RA,SKC,0.29,WeatherDisplay:10.37,2013-09-06 20:24:00,
2013-09-06 21:29:00,48.0,44.6,29.50,SE,135,0.0,0.0,88,0.14,RA,SKC,0.31,WeatherDisplay:10.37,2013-09-06 20:29:00,
2013-09-06 21:34:00,48.0,44.6,29.50,South,180,0.0,0.0,88,0.12,RA,SKC,0.31,WeatherDisplay:10.37,2013-09-06 20:34:00,
2013-09-06 21:39:00,47.8,44.8,29.50,SSE,158,0.0,0.0,89,0.10,,SKC,0.31,WeatherDisplay:10.37,2013-09-06 20:39:00,
2013-09-06 21:44:00,47.7,44.6,29.50,SSE,158,0.0,0.0,89,0.08,CLR,SKC,0.31,WeatherDisplay:10.37,2013-09-06 20:44:00,
2013-09-06 21:49:00,47.5,44.4,29.50,ESE,112,0.0,0.0,89,0.10,RA,SKC,0.33,WeatherDisplay:10.37,2013-09-06 20:49:00,
2013-09-06 21:54:00,47.5,44.4,29.49,ENE,68,0.0,0.0,89,0.12,RA,SKC,0.35,WeatherDisplay:10.37,2013-09-06 20:54:00,
2013-09-06 21:59:00,47.3,44.2,29.49,NNW,338,0.0,0.0,89,0.12,RA,SKC,0.35,WeatherDisplay:10.37,2013-09-06 20:59:00,
2013-09-06 22:04:00,47.3,44.2,29.49,NNW,338,0.0,0.0,89,0.10,,SKC,0.35,WeatherDisplay:10.37,2013-09-06 21:04:00,
2013-09-06 22:09:00,47.3,44.2,29.50,ENE,68,0.0,0.0,89,0.10,CLR,SKC,0.35,WeatherDisplay:10.37,2013-09-06 21:09:00,
2013-09-06 22:14:00,47.3,44.2,29.50,ENE,68,0.0,0.0,89,0.10,RA,SKC,0.37,WeatherDisplay:10.37,2013-09-06 21:14:00,
2013-09-06 22:19:00,47.3,44.2,29.49,NNE,22,0.0,0.0,89,0.10,RA,SKC,0.37,WeatherDisplay:10.37,2013-09-06 21:19:00,
2013-09-06 22:24:00,47.1,44.0,29.49,NNE,22,0.0,0.0,89,0.10,RA,SKC,0.39,WeatherDisplay:10.37,2013-09-06 21:24:00,
2013-09-06 22:29:00,47.1,44.0,29.49,NNE,22,0.0,0.0,89,0.10,RA,SKC,0.41,WeatherDisplay:10.37,2013-09-06 21:29:00,
2013-09-06 22:34:00,47.1,44.0,29.48,NNE,22,0.0,0.0,89,0.14,RA,SKC,0.45,WeatherDisplay:10.37,2013-09-06 21:34:00,
2013-09-06 22:39:00,47.1,44.0,29.48,NNW,338,0.0,0.0,89,0.16,RA,SKC,0.47,WeatherDisplay:10.37,2013-09-06 21:39:00,
2013-09-06 22:44:00,47.1,44.0,29.49,NNW,338,0.0,0.0,89,0.16,RA,SKC,0.47,WeatherDisplay:10.37,2013-09-06 21:44:00,
2013-09-06 22:49:00,47.1,44.0,29.49,NW,315,0.0,0.0,89,0.14,CLR,SKC,0.47,WeatherDisplay:10.37,2013-09-06 21:49:00,
2013-09-06 22:54:00,47.1,44.0,29.48,NW,315,0.0,0.0,89,0.12,CLR,SKC,0.47,WeatherDisplay:10.37,2013-09-06 21:54:00,
2013-09-06 22:59:00,47.1,44.0,29.48,NNW,338,0.0,0.0,89,0.12,CLR,SKC,0.47,WeatherDisplay:10.37,2013-09-06 21:59:00,
2013-09-06 23:04:00,47.1,44.0,29.48,NNW,338,0.0,0.0,89,0.14,RA,SKC,0.49,WeatherDisplay:10.37,2013-09-06 22:04:00,
2013-09-06 23:09:00,46.9,43.9,29.47,NNW,338,0.0,0.0,89,0.14,RA,SKC,0.49,WeatherDisplay:10.37,2013-09-06 22:09:00,
2013-09-06 23:14:00,46.9,43.9,29.47,NNW,338,0.0,0.0,89,0.14,RA,SKC,0.51,WeatherDisplay:10.37,2013-09-06 22:14:00,
2013-09-06 23:19:00,46.9,43.9,29.47,NNW,338,0.0,0.0,89,0.16,RA,SKC,0.53,WeatherDisplay:10.37,2013-09-06 22:19:00,
2013-09-06 23:24:00,46.9,43.9,29.47,NNW,338,0.0,0.0,89,0.16,RA,SKC,0.55,WeatherDisplay:10.37,2013-09-06 22:24:00,
2013-09-06 23:29:00,46.9,43.9,29.47,North,0,0.0,0.0,89,0.14,RA,SKC,0.55,WeatherDisplay:10.37,2013-09-06 22:29:00,
2013-09-06 23:34:00,46.9,43.9,29.46,North,0,0.0,0.0,89,0.10,CLR,SKC,0.55,WeatherDisplay:10.37,2013-09-06 22:34:00,
2013-09-06 23:39:00,46.8,43.7,29.46,NNW,338,0.0,0.0,89,0.10,RA,SKC,0.57,WeatherDisplay:10.37,2013-09-06 22:39:00,
2013-09-06 23:44:00,46.8,43.7,29.46,NNW,338,0.0,0.0,89,0.10,RA,SKC,0.57,WeatherDisplay:10.37,2013-09-06 22:44:00,
2013-09-06 23:49:00,46.6,43.5,29.46,NW,315,0.0,0.0,89,0.10,CLR,SKC,0.57,WeatherDisplay:10.37,2013-09-06 22:49:00,
2013-09-06 23:54:00,46.6,43.5,29.46,North,0,0.0,0.0,89,0.10,CLR,SKC,0.57,WeatherDisplay:10.37,2013-09-06 22:54:00,
2013-09-06 23:59:00,46.6,43.5,29.46,NNW,338,0.0,0.0,89,0.10,CLR,SKC,0.57,WeatherDisplay:10.37,2013-09-06 22:59:00,